createdAt,value
2016-04-25T00:00:00.622Z,1008
2016-04-25T00:00:10.606Z,1008.03
2016-04-25T00:00:20.606Z,1008.03
2016-04-25T00:00:30.606Z,1008.05
2016-04-25T00:00:40.575Z,1008.01
2016-04-25T00:00:50.606Z,1008.01
2016-04-25T00:01:00.422Z,1007.97
2016-04-25T00:01:10.562Z,1008.04
2016-04-25T00:01:20.578Z,1008.04
2016-04-25T00:01:30.562Z,1008.02
2016-04-25T00:01:40.562Z,1008.02
2016-04-25T00:01:50.562Z,1008
2016-04-25T00:02:00.549Z,1007.99
2016-04-25T00:02:10.549Z,1008.05
2016-04-25T00:02:20.533Z,1008.02
2016-04-25T00:02:30.518Z,1008.01
2016-04-25T00:02:40.533Z,1008
2016-04-25T00:02:50.518Z,1008.02
2016-04-25T00:03:00.520Z,1008.02
2016-04-25T00:03:10.504Z,1008.04
2016-04-25T00:03:20.504Z,1008
2016-04-25T00:03:30.504Z,1007.99
2016-04-25T00:03:40.488Z,1008.03
2016-04-25T00:03:50.473Z,1007.97
2016-04-25T00:04:00.476Z,1008.01
2016-04-25T00:04:10.476Z,1008.01
2016-04-25T00:04:20.476Z,1007.98
2016-04-25T00:04:30.491Z,1008.01
2016-04-25T00:04:40.444Z,1008.01
2016-04-25T00:04:50.444Z,1008.01
2016-04-25T00:05:00.448Z,1007.99
2016-04-25T00:05:10.448Z,1007.99
2016-04-25T00:05:20.448Z,1007.97
2016-04-25T00:05:30.433Z,1007.99
2016-04-25T00:05:40.433Z,1008.01
2016-04-25T00:05:50.433Z,1007.99
2016-04-25T00:06:00.404Z,1008
2016-04-25T00:06:10.404Z,1008.03
2016-04-25T00:06:20.404Z,1008.01
2016-04-25T00:06:30.404Z,1007.99
2016-04-25T00:06:40.404Z,1008.02
2016-04-25T00:06:50.404Z,1008.01
2016-04-25T00:07:00.390Z,1008.02
2016-04-25T00:07:10.374Z,1007.95
2016-04-25T00:07:20.359Z,1008.03
2016-04-25T00:07:30.374Z,1008.02
2016-04-25T00:07:40.421Z,1008.01
2016-04-25T00:07:50.202Z,1008.01
2016-04-25T00:08:00.346Z,1007.94
2016-04-25T00:08:10.346Z,1007.98
2016-04-25T00:08:20.330Z,1007.97
2016-04-25T00:08:30.315Z,1007.98
2016-04-25T00:08:40.330Z,1007.98
2016-04-25T00:08:50.330Z,1008.02
2016-04-25T00:09:00.317Z,1008
2016-04-25T00:09:10.301Z,1007.97
2016-04-25T00:09:20.286Z,1008
2016-04-25T00:09:30.286Z,1008.01
2016-04-25T00:09:40.286Z,1007.93
2016-04-25T00:09:50.286Z,1007.95
2016-04-25T00:10:00.290Z,1007.98
2016-04-25T00:10:10.274Z,1007.98
2016-04-25T00:10:20.274Z,1008.01
2016-04-25T00:10:30.274Z,1008
2016-04-25T00:10:40.290Z,1007.97
2016-04-25T00:10:50.258Z,1007.97
2016-04-25T00:11:00.246Z,1008
2016-04-25T00:11:10.261Z,1007.99
2016-04-25T00:11:20.230Z,1007.95
2016-04-25T00:11:30.230Z,1008
2016-04-25T00:11:40.230Z,1007.97
2016-04-25T00:11:50.355Z,1008.02
2016-04-25T00:12:00.232Z,1007.98
2016-04-25T00:12:10.560Z,1007.99
2016-04-25T00:12:20.826Z,1008
2016-04-25T00:12:30.998Z,1007.96
2016-04-25T00:12:40.154Z,1007.98
2016-04-25T00:12:50.591Z,1007.97
2016-04-25T00:13:00.359Z,1007.98
2016-04-25T00:13:10.172Z,1008
2016-04-25T00:13:20.218Z,1007.99
2016-04-25T00:13:30.031Z,1008
2016-04-25T00:13:40.156Z,1007.99
2016-04-25T00:13:50.140Z,1007.98
2016-04-25T00:14:00.143Z,1007.94
2016-04-25T00:14:10.128Z,1007.97
2016-04-25T00:14:20.143Z,1007.97
2016-04-25T00:14:30.128Z,1007.98
2016-04-25T00:14:40.128Z,1007.96
2016-04-25T00:14:50.112Z,1007.98
2016-04-25T00:15:00.115Z,1008
2016-04-25T00:15:10.115Z,1007.98
2016-04-25T00:15:20.099Z,1007.99
2016-04-25T00:15:30.099Z,1007.95
2016-04-25T00:15:40.084Z,1007.95
2016-04-25T00:15:50.084Z,1007.99
2016-04-25T00:16:00.087Z,1007.96
2016-04-25T00:16:10.071Z,1007.95
2016-04-25T00:16:20.056Z,1007.94
2016-04-25T00:16:30.056Z,1007.95
2016-04-25T00:16:40.071Z,1007.94
2016-04-25T00:16:50.056Z,1007.92
2016-04-25T00:17:00.043Z,1007.98
2016-04-25T00:17:10.043Z,1007.94
2016-04-25T00:17:20.027Z,1007.98
2016-04-25T00:17:30.027Z,1007.97
2016-04-25T00:17:40.027Z,1007.98
2016-04-25T00:17:50.027Z,1007.97
2016-04-25T00:18:00.014Z,1007.96
2016-04-25T00:18:10.014Z,1007.93
2016-04-25T00:18:19.998Z,1007.98
2016-04-25T00:18:29.982Z,1007.94
2016-04-25T00:18:39.982Z,1007.96
2016-04-25T00:18:49.967Z,1007.95
2016-04-25T00:18:59.984Z,1007.94
2016-04-25T00:19:09.969Z,1007.98
2016-04-25T00:19:19.969Z,1007.92
2016-04-25T00:19:29.969Z,1007.92
2016-04-25T00:19:39.953Z,1007.96
2016-04-25T00:19:49.938Z,1007.93
2016-04-25T00:19:59.831Z,1007.98
2016-04-25T00:20:09.925Z,1007.93
2016-04-25T00:20:19.941Z,1007.97
2016-04-25T00:20:29.925Z,1007.96
2016-04-25T00:20:39.941Z,1007.98
2016-04-25T00:20:49.925Z,1007.95
2016-04-25T00:20:59.913Z,1007.94
2016-04-25T00:21:09.913Z,1007.93
2016-04-25T00:21:19.913Z,1007.91
2016-04-25T00:21:29.898Z,1007.95
2016-04-25T00:21:39.882Z,1007.92
2016-04-25T00:21:49.757Z,1007.92
2016-04-25T00:21:59.867Z,1007.94
2016-04-25T00:22:09.742Z,1007.93
2016-04-25T00:22:19.983Z,1007.92
2016-04-25T00:22:29.701Z,1007.93
2016-04-25T00:22:39.858Z,1007.91
2016-04-25T00:22:49.858Z,1007.87
2016-04-25T00:22:59.845Z,1007.91
2016-04-25T00:23:09.845Z,1007.92
2016-04-25T00:23:19.829Z,1007.89
2016-04-25T00:23:29.829Z,1007.91
2016-04-25T00:23:39.814Z,1007.95
2016-04-25T00:23:49.798Z,1007.93
2016-04-25T00:23:59.817Z,1007.91
2016-04-25T00:24:09.801Z,1007.96
2016-04-25T00:24:19.801Z,1007.91
2016-04-25T00:24:29.785Z,1007.93
2016-04-25T00:24:39.785Z,1007.92
2016-04-25T00:24:49.770Z,1007.87
2016-04-25T00:24:59.788Z,1007.92
2016-04-25T00:25:09.773Z,1007.87
2016-04-25T00:25:19.773Z,1007.88
2016-04-25T00:25:29.757Z,1007.86
2016-04-25T00:25:39.757Z,1007.9
2016-04-25T00:25:49.742Z,1007.89
2016-04-25T00:25:59.759Z,1007.9
2016-04-25T00:26:09.744Z,1007.89
2016-04-25T00:26:19.744Z,1007.88
2016-04-25T00:26:29.728Z,1007.92
2016-04-25T00:26:39.728Z,1007.92
2016-04-25T00:26:50.009Z,1007.88
2016-04-25T00:27:00.668Z,1007.86
2016-04-25T00:27:10.215Z,1007.84
2016-04-25T00:27:19.700Z,1007.87
2016-04-25T00:27:30.434Z,1007.87
2016-04-25T00:27:40.465Z,1007.84
2016-04-25T00:27:50.262Z,1007.88
2016-04-25T00:27:59.906Z,1007.85
2016-04-25T00:28:09.671Z,1007.87
2016-04-25T00:28:19.656Z,1007.85
2016-04-25T00:28:29.656Z,1007.88
2016-04-25T00:28:39.656Z,1007.89
2016-04-25T00:28:49.640Z,1007.92
2016-04-25T00:28:59.642Z,1007.88
2016-04-25T00:29:09.642Z,1007.91
2016-04-25T00:29:19.658Z,1007.89
2016-04-25T00:29:29.642Z,1007.87
2016-04-25T00:29:39.627Z,1007.88
2016-04-25T00:29:49.627Z,1007.86
2016-04-25T00:29:59.599Z,1007.86
2016-04-25T00:30:09.615Z,1007.89
2016-04-25T00:30:19.615Z,1007.85
2016-04-25T00:30:29.599Z,1007.85
2016-04-25T00:30:39.615Z,1007.87
2016-04-25T00:30:49.599Z,1007.83
2016-04-25T00:30:59.570Z,1007.82
2016-04-25T00:31:09.570Z,1007.92
2016-04-25T00:31:19.554Z,1007.87
2016-04-25T00:31:29.570Z,1007.88
2016-04-25T00:31:39.554Z,1007.95
2016-04-25T00:31:49.539Z,1007.92
2016-04-25T00:31:59.557Z,1007.85
2016-04-25T00:32:09.557Z,1007.86
2016-04-25T00:32:19.526Z,1007.87
2016-04-25T00:32:29.526Z,1007.83
2016-04-25T00:32:39.511Z,1007.93
2016-04-25T00:32:49.511Z,1007.89
2016-04-25T00:32:59.498Z,1007.89
2016-04-25T00:33:09.498Z,1007.86
2016-04-25T00:33:19.514Z,1007.86
2016-04-25T00:33:29.498Z,1007.87
2016-04-25T00:33:39.498Z,1007.83
2016-04-25T00:33:49.498Z,1007.87
2016-04-25T00:33:59.469Z,1007.9
2016-04-25T00:34:09.469Z,1007.87
2016-04-25T00:34:19.469Z,1007.9
2016-04-25T00:34:29.453Z,1007.84
2016-04-25T00:34:39.453Z,1007.85
2016-04-25T00:34:49.437Z,1007.82
2016-04-25T00:34:59.440Z,1007.82
2016-04-25T00:35:09.440Z,1007.86
2016-04-25T00:35:19.440Z,1007.8
2016-04-25T00:35:29.425Z,1007.79
2016-04-25T00:35:39.425Z,1007.84
2016-04-25T00:35:49.409Z,1007.85
2016-04-25T00:35:59.427Z,1007.8
2016-04-25T00:36:09.396Z,1007.86
2016-04-25T00:36:19.396Z,1007.81
2016-04-25T00:36:29.396Z,1007.83
2016-04-25T00:36:39.396Z,1007.86
2016-04-25T00:36:49.396Z,1007.92
2016-04-25T00:36:59.384Z,1007.82
2016-04-25T00:37:09.368Z,1007.88
2016-04-25T00:37:19.368Z,1007.87
2016-04-25T00:37:29.353Z,1007.87
2016-04-25T00:37:39.337Z,1007.87
2016-04-25T00:37:49.368Z,1007.87
2016-04-25T00:37:59.355Z,1007.84
2016-04-25T00:38:09.339Z,1007.91
2016-04-25T00:38:19.323Z,1007.91
2016-04-25T00:38:29.323Z,1007.84
2016-04-25T00:38:39.323Z,1007.87
2016-04-25T00:38:49.308Z,1007.91
2016-04-25T00:38:59.311Z,1007.83
2016-04-25T00:39:09.295Z,1007.87
2016-04-25T00:39:19.295Z,1007.88
2016-04-25T00:39:29.280Z,1007.86
2016-04-25T00:39:39.280Z,1007.88
2016-04-25T00:39:49.280Z,1007.83
2016-04-25T00:39:59.282Z,1007.87
2016-04-25T00:40:09.282Z,1007.85
2016-04-25T00:40:19.250Z,1007.88
2016-04-25T00:40:29.266Z,1007.87
2016-04-25T00:40:39.250Z,1007.84
2016-04-25T00:40:49.235Z,1007.87
2016-04-25T00:40:59.238Z,1007.81
2016-04-25T00:41:09.238Z,1007.86
2016-04-25T00:41:19.238Z,1007.83
2016-04-25T00:41:29.238Z,1007.83
2016-04-25T00:41:39.238Z,1007.85
2016-04-25T00:41:49.566Z,1007.81
2016-04-25T00:42:00.287Z,1007.83
2016-04-25T00:42:09.068Z,1007.81
2016-04-25T00:42:19.458Z,1007.84
2016-04-25T00:42:29.177Z,1007.83
2016-04-25T00:42:39.021Z,1007.91
2016-04-25T00:42:49.771Z,1007.89
2016-04-25T00:42:59.744Z,1007.87
2016-04-25T00:43:09.416Z,1007.84
2016-04-25T00:43:19.181Z,1007.88
2016-04-25T00:43:29.150Z,1007.87
2016-04-25T00:43:39.181Z,1007.88
2016-04-25T00:43:49.150Z,1007.85
2016-04-25T00:43:59.136Z,1007.92
2016-04-25T00:44:09.136Z,1007.9
2016-04-25T00:44:19.121Z,1007.86
2016-04-25T00:44:29.136Z,1007.9
2016-04-25T00:44:39.121Z,1007.87
2016-04-25T00:44:49.121Z,1007.84
2016-04-25T00:44:59.108Z,1007.86
2016-04-25T00:45:08.936Z,1007.85
2016-04-25T00:45:19.092Z,1007.85
2016-04-25T00:45:29.092Z,1007.87
2016-04-25T00:45:39.077Z,1007.84
2016-04-25T00:45:49.077Z,1007.86
2016-04-25T00:45:59.094Z,1007.86
2016-04-25T00:46:09.063Z,1007.81
2016-04-25T00:46:19.079Z,1007.86
2016-04-25T00:46:29.048Z,1007.85
2016-04-25T00:46:39.048Z,1007.86
2016-04-25T00:46:49.048Z,1007.82
2016-04-25T00:46:59.052Z,1007.82
2016-04-25T00:47:09.036Z,1007.84
2016-04-25T00:47:19.020Z,1007.81
2016-04-25T00:47:29.005Z,1007.81
2016-04-25T00:47:39.020Z,1007.82
2016-04-25T00:47:49.005Z,1007.82
2016-04-25T00:47:59.007Z,1007.82
2016-04-25T00:48:08.991Z,1007.84
2016-04-25T00:48:19.007Z,1007.79
2016-04-25T00:48:28.991Z,1007.84
2016-04-25T00:48:38.975Z,1007.8
2016-04-25T00:48:48.960Z,1007.81
2016-04-25T00:48:58.978Z,1007.83
2016-04-25T00:49:08.978Z,1007.82
2016-04-25T00:49:18.978Z,1007.82
2016-04-25T00:49:28.978Z,1007.81
2016-04-25T00:49:38.947Z,1007.82
2016-04-25T00:49:48.947Z,1007.8
2016-04-25T00:49:58.934Z,1007.85
2016-04-25T00:50:08.934Z,1007.84
2016-04-25T00:50:18.918Z,1007.82
2016-04-25T00:50:28.918Z,1007.77
2016-04-25T00:50:38.918Z,1007.81
2016-04-25T00:50:48.918Z,1007.8
2016-04-25T00:50:58.905Z,1007.8
2016-04-25T00:51:08.890Z,1007.82
2016-04-25T00:51:18.890Z,1007.83
2016-04-25T00:51:28.890Z,1007.8
2016-04-25T00:51:38.890Z,1007.82
2016-04-25T00:51:48.874Z,1007.86
2016-04-25T00:51:58.876Z,1007.84
2016-04-25T00:52:08.845Z,1007.81
2016-04-25T00:52:18.860Z,1007.83
2016-04-25T00:52:28.845Z,1007.8
2016-04-25T00:52:38.845Z,1007.8
2016-04-25T00:52:48.860Z,1007.79
2016-04-25T00:52:58.849Z,1007.81
2016-04-25T00:53:08.833Z,1007.81
2016-04-25T00:53:18.833Z,1007.78
2016-04-25T00:53:28.818Z,1007.78
2016-04-25T00:53:38.802Z,1007.78
2016-04-25T00:53:48.802Z,1007.8
2016-04-25T00:53:58.804Z,1007.79
2016-04-25T00:54:08.804Z,1007.78
2016-04-25T00:54:18.788Z,1007.8
2016-04-25T00:54:28.788Z,1007.82
2016-04-25T00:54:38.788Z,1007.79
2016-04-25T00:54:48.773Z,1007.76
2016-04-25T00:54:58.776Z,1007.78
2016-04-25T00:55:08.776Z,1007.79
2016-04-25T00:55:18.744Z,1007.79
2016-04-25T00:55:28.760Z,1007.8
2016-04-25T00:55:38.744Z,1007.79
2016-04-25T00:55:48.729Z,1007.77
2016-04-25T00:55:58.731Z,1007.78
2016-04-25T00:56:08.731Z,1007.72
2016-04-25T00:56:18.731Z,1007.76
2016-04-25T00:56:28.715Z,1007.78
2016-04-25T00:56:38.715Z,1007.82
2016-04-25T00:56:48.715Z,1007.78
2016-04-25T00:56:59.172Z,1007.78
2016-04-25T00:57:08.641Z,1007.77
2016-04-25T00:57:18.594Z,1007.79
2016-04-25T00:57:28.532Z,1007.77
2016-04-25T00:57:38.688Z,1007.74
2016-04-25T00:57:48.719Z,1007.76
2016-04-25T00:57:58.862Z,1007.78
2016-04-25T00:58:08.721Z,1007.77
2016-04-25T00:58:18.659Z,1007.76
2016-04-25T00:58:28.643Z,1007.77
2016-04-25T00:58:38.643Z,1007.74
2016-04-25T00:58:48.643Z,1007.74
2016-04-25T00:58:58.630Z,1007.78
2016-04-25T00:59:08.646Z,1007.77
2016-04-25T00:59:18.630Z,1007.77
2016-04-25T00:59:28.615Z,1007.7
2016-04-25T00:59:38.615Z,1007.76
2016-04-25T00:59:48.599Z,1007.72
2016-04-25T00:59:58.586Z,1007.71
2016-04-25T01:00:08.586Z,1007.74
2016-04-25T01:00:18.586Z,1007.72
2016-04-25T01:00:28.586Z,1007.76
2016-04-25T01:00:38.586Z,1007.74
2016-04-25T01:00:48.601Z,1007.72
2016-04-25T01:00:58.572Z,1007.72
2016-04-25T01:01:08.556Z,1007.76
2016-04-25T01:01:18.541Z,1007.69
2016-04-25T01:01:28.541Z,1007.74
2016-04-25T01:01:38.541Z,1007.7
2016-04-25T01:01:48.541Z,1007.71
2016-04-25T01:01:58.544Z,1007.73
2016-04-25T01:02:08.528Z,1007.72
2016-04-25T01:02:18.512Z,1007.71
2016-04-25T01:02:28.512Z,1007.74
2016-04-25T01:02:38.497Z,1007.74
2016-04-25T01:02:48.481Z,1007.74
2016-04-25T01:02:58.501Z,1007.7
2016-04-25T01:03:08.485Z,1007.72
2016-04-25T01:03:18.501Z,1007.76
2016-04-25T01:03:28.485Z,1007.74
2016-04-25T01:03:38.485Z,1007.71
2016-04-25T01:03:48.470Z,1007.66
2016-04-25T01:03:58.472Z,1007.7
2016-04-25T01:04:08.472Z,1007.73
2016-04-25T01:04:18.472Z,1007.72
2016-04-25T01:04:28.472Z,1007.68
2016-04-25T01:04:38.440Z,1007.67
2016-04-25T01:04:48.440Z,1007.68
2016-04-25T01:04:58.428Z,1007.72
2016-04-25T01:05:08.412Z,1007.69
2016-04-25T01:05:18.428Z,1007.67
2016-04-25T01:05:28.412Z,1007.68
2016-04-25T01:05:38.412Z,1007.7
2016-04-25T01:05:48.443Z,1007.72
2016-04-25T01:05:58.398Z,1007.72
2016-04-25T01:06:08.383Z,1007.69
2016-04-25T01:06:18.367Z,1007.71
2016-04-25T01:06:28.367Z,1007.71
2016-04-25T01:06:38.367Z,1007.69
2016-04-25T01:06:48.367Z,1007.7
2016-04-25T01:06:58.370Z,1007.7
2016-04-25T01:07:08.401Z,1007.67
2016-04-25T01:07:18.355Z,1007.67
2016-04-25T01:07:28.339Z,1007.69
2016-04-25T01:07:38.339Z,1007.69
2016-04-25T01:07:48.183Z,1007.73
2016-04-25T01:07:58.326Z,1007.7
2016-04-25T01:08:08.326Z,1007.69
2016-04-25T01:08:18.326Z,1007.69
2016-04-25T01:08:28.342Z,1007.68
2016-04-25T01:08:38.311Z,1007.74
2016-04-25T01:08:48.311Z,1007.69
2016-04-25T01:08:58.298Z,1007.71
2016-04-25T01:09:08.282Z,1007.73
2016-04-25T01:09:18.298Z,1007.71
2016-04-25T01:09:28.282Z,1007.74
2016-04-25T01:09:38.282Z,1007.73
2016-04-25T01:09:48.267Z,1007.7
2016-04-25T01:09:58.253Z,1007.73
2016-04-25T01:10:08.269Z,1007.77
2016-04-25T01:10:18.253Z,1007.74
2016-04-25T01:10:28.253Z,1007.73
2016-04-25T01:10:38.222Z,1007.74
2016-04-25T01:10:48.238Z,1007.74
2016-04-25T01:10:58.224Z,1007.73
2016-04-25T01:11:08.208Z,1007.7
2016-04-25T01:11:18.208Z,1007.73
2016-04-25T01:11:28.193Z,1007.67
2016-04-25T01:11:38.208Z,1007.75
2016-04-25T01:11:48.193Z,1007.72
2016-04-25T01:11:58.055Z,1007.72
2016-04-25T01:12:08.227Z,1007.68
2016-04-25T01:12:18.102Z,1007.69
2016-04-25T01:12:28.586Z,1007.73
2016-04-25T01:12:38.352Z,1007.72
2016-04-25T01:12:48.414Z,1007.69
2016-04-25T01:12:59.433Z,1007.67
2016-04-25T01:13:08.152Z,1007.72
2016-04-25T01:13:18.152Z,1007.74
2016-04-25T01:13:28.136Z,1007.7
2016-04-25T01:13:38.121Z,1007.71
2016-04-25T01:13:48.136Z,1007.71
2016-04-25T01:13:58.124Z,1007.71
2016-04-25T01:14:08.124Z,1007.71
2016-04-25T01:14:18.108Z,1007.68
2016-04-25T01:14:28.092Z,1007.67
2016-04-25T01:14:38.092Z,1007.74
2016-04-25T01:14:48.108Z,1007.67
2016-04-25T01:14:58.079Z,1007.73
2016-04-25T01:15:08.094Z,1007.64
2016-04-25T01:15:18.079Z,1007.67
2016-04-25T01:15:28.079Z,1007.67
2016-04-25T01:15:38.063Z,1007.68
2016-04-25T01:15:48.047Z,1007.7
2016-04-25T01:15:58.050Z,1007.73
2016-04-25T01:16:08.050Z,1007.65
2016-04-25T01:16:18.050Z,1007.68
2016-04-25T01:16:28.035Z,1007.66
2016-04-25T01:16:38.035Z,1007.64
2016-04-25T01:16:48.035Z,1007.71
2016-04-25T01:16:58.022Z,1007.64
2016-04-25T01:17:08.022Z,1007.68
2016-04-25T01:17:18.022Z,1007.67
2016-04-25T01:17:27.991Z,1007.68
2016-04-25T01:17:38.022Z,1007.7
2016-04-25T01:17:47.991Z,1007.66
2016-04-25T01:17:57.994Z,1007.69
2016-04-25T01:18:07.978Z,1007.66
2016-04-25T01:18:17.994Z,1007.67
2016-04-25T01:18:27.978Z,1007.68
2016-04-25T01:18:37.978Z,1007.67
2016-04-25T01:18:47.963Z,1007.7
2016-04-25T01:18:57.947Z,1007.69
2016-04-25T01:19:07.949Z,1007.7
2016-04-25T01:19:17.933Z,1007.65
2016-04-25T01:19:27.933Z,1007.66
2016-04-25T01:19:37.933Z,1007.67
2016-04-25T01:19:47.918Z,1007.68
2016-04-25T01:19:57.918Z,1007.66
2016-04-25T01:20:07.905Z,1007.66
2016-04-25T01:20:17.905Z,1007.63
2016-04-25T01:20:27.905Z,1007.66
2016-04-25T01:20:37.874Z,1007.65
2016-04-25T01:20:47.890Z,1007.67
2016-04-25T01:20:57.874Z,1007.68
2016-04-25T01:21:07.876Z,1007.66
2016-04-25T01:21:17.876Z,1007.69
2016-04-25T01:21:27.860Z,1007.64
2016-04-25T01:21:37.860Z,1007.62
2016-04-25T01:21:47.845Z,1007.65
2016-04-25T01:21:57.860Z,1007.71
2016-04-25T01:22:07.849Z,1007.69
2016-04-25T01:22:17.849Z,1007.66
2016-04-25T01:22:27.833Z,1007.71
2016-04-25T01:22:37.817Z,1007.66
2016-04-25T01:22:47.817Z,1007.65
2016-04-25T01:22:57.802Z,1007.7
2016-04-25T01:23:07.819Z,1007.69
2016-04-25T01:23:17.819Z,1007.72
2016-04-25T01:23:27.804Z,1007.67
2016-04-25T01:23:37.804Z,1007.68
2016-04-25T01:23:47.804Z,1007.66
2016-04-25T01:23:57.788Z,1007.67
2016-04-25T01:24:07.775Z,1007.68
2016-04-25T01:24:17.759Z,1007.69
2016-04-25T01:24:27.775Z,1007.63
2016-04-25T01:24:37.775Z,1007.65
2016-04-25T01:24:47.759Z,1007.67
2016-04-25T01:24:57.743Z,1007.65
2016-04-25T01:25:07.746Z,1007.63
2016-04-25T01:25:17.746Z,1007.69
2016-04-25T01:25:27.731Z,1007.63
2016-04-25T01:25:37.731Z,1007.67
2016-04-25T01:25:47.715Z,1007.69
2016-04-25T01:25:57.699Z,1007.64
2016-04-25T01:26:07.702Z,1007.63
2016-04-25T01:26:17.702Z,1007.61
2016-04-25T01:26:27.687Z,1007.61
2016-04-25T01:26:37.702Z,1007.64
2016-04-25T01:26:47.687Z,1007.64
2016-04-25T01:26:57.734Z,1007.68
2016-04-25T01:27:07.690Z,1007.69
2016-04-25T01:27:17.643Z,1007.62
2016-04-25T01:27:27.815Z,1007.69
2016-04-25T01:27:38.018Z,1007.65
2016-04-25T01:27:47.862Z,1007.63
2016-04-25T01:27:57.659Z,1007.66
2016-04-25T01:28:07.443Z,1007.65
2016-04-25T01:28:18.255Z,1007.65
2016-04-25T01:28:27.646Z,1007.66
2016-04-25T01:28:37.615Z,1007.64
2016-04-25T01:28:47.615Z,1007.67
2016-04-25T01:28:57.615Z,1007.65
2016-04-25T01:29:07.601Z,1007.64
2016-04-25T01:29:17.601Z,1007.67
2016-04-25T01:29:27.601Z,1007.67
2016-04-25T01:29:37.585Z,1007.65
2016-04-25T01:29:47.585Z,1007.65
2016-04-25T01:29:57.570Z,1007.62
2016-04-25T01:30:07.573Z,1007.65
2016-04-25T01:30:17.557Z,1007.6
2016-04-25T01:30:27.573Z,1007.67
2016-04-25T01:30:37.573Z,1007.58
2016-04-25T01:30:47.557Z,1007.63
2016-04-25T01:30:57.542Z,1007.63
2016-04-25T01:31:07.560Z,1007.6
2016-04-25T01:31:17.529Z,1007.63
2016-04-25T01:31:27.529Z,1007.61
2016-04-25T01:31:37.513Z,1007.6
2016-04-25T01:31:47.513Z,1007.64
2016-04-25T01:31:57.513Z,1007.62
2016-04-25T01:32:07.515Z,1007.57
2016-04-25T01:32:17.515Z,1007.62
2016-04-25T01:32:27.484Z,1007.59
2016-04-25T01:32:37.515Z,1007.57
2016-04-25T01:32:47.484Z,1007.63
2016-04-25T01:32:57.484Z,1007.61
2016-04-25T01:33:07.471Z,1007.58
2016-04-25T01:33:17.456Z,1007.59
2016-04-25T01:33:27.471Z,1007.61
2016-04-25T01:33:37.456Z,1007.61
2016-04-25T01:33:47.456Z,1007.56
2016-04-25T01:33:57.440Z,1007.61
2016-04-25T01:34:17.568Z,1007.64
2016-04-25T01:34:27.568Z,1007.62
2016-04-25T01:34:37.553Z,1007.65
2016-04-25T01:34:47.553Z,1007.62
2016-04-25T01:34:57.553Z,1007.62
2016-04-25T01:35:07.539Z,1007.64
2016-04-25T01:35:17.555Z,1007.63
2016-04-25T01:35:27.539Z,1007.59
2016-04-25T01:35:37.523Z,1007.63
2016-04-25T01:35:47.508Z,1007.58
2016-04-25T01:35:57.508Z,1007.63
2016-04-25T01:36:07.495Z,1007.57
2016-04-25T01:36:17.495Z,1007.59
2016-04-25T01:36:27.495Z,1007.63
2016-04-25T01:36:37.479Z,1007.62
2016-04-25T01:36:47.479Z,1007.64
2016-04-25T01:36:57.464Z,1007.58
2016-04-25T01:37:07.482Z,1007.64
2016-04-25T01:37:17.467Z,1007.63
2016-04-25T01:37:27.467Z,1007.59
2016-04-25T01:37:37.451Z,1007.59
2016-04-25T01:37:47.451Z,1007.65
2016-04-25T01:37:57.451Z,1007.59
2016-04-25T01:38:07.453Z,1007.63
2016-04-25T01:38:17.422Z,1007.58
2016-04-25T01:38:27.438Z,1007.59
2016-04-25T01:38:37.406Z,1007.59
2016-04-25T01:38:47.422Z,1007.58
2016-04-25T01:38:57.406Z,1007.54
2016-04-25T01:39:07.409Z,1007.6
2016-04-25T01:39:17.409Z,1007.59
2016-04-25T01:39:27.394Z,1007.61
2016-04-25T01:39:37.394Z,1007.6
2016-04-25T01:39:47.378Z,1007.57
2016-04-25T01:39:57.378Z,1007.57
2016-04-25T01:40:07.350Z,1007.6
2016-04-25T01:40:17.365Z,1007.59
2016-04-25T01:40:27.350Z,1007.61
2016-04-25T01:40:37.334Z,1007.56
2016-04-25T01:40:47.350Z,1007.6
2016-04-25T01:40:57.334Z,1007.61
2016-04-25T01:41:07.337Z,1007.61
2016-04-25T01:41:17.337Z,1007.61
2016-04-25T01:41:27.322Z,1007.61
2016-04-25T01:41:37.322Z,1007.6
2016-04-25T01:41:47.322Z,1007.59
2016-04-25T01:41:57.306Z,1007.6
2016-04-25T01:42:07.683Z,1007.57
2016-04-25T01:42:17.855Z,1007.58
2016-04-25T01:42:27.152Z,1007.61
2016-04-25T01:42:37.292Z,1007.61
2016-04-25T01:42:47.324Z,1007.56
2016-04-25T01:42:58.089Z,1007.6
2016-04-25T01:43:07.482Z,1007.55
2016-04-25T01:43:16.997Z,1007.6
2016-04-25T01:43:27.247Z,1007.61
2016-04-25T01:43:37.247Z,1007.59
2016-04-25T01:43:47.232Z,1007.57
2016-04-25T01:43:57.232Z,1007.58
2016-04-25T01:44:07.079Z,1007.61
2016-04-25T01:44:17.250Z,1007.58
2016-04-25T01:44:27.219Z,1007.55
2016-04-25T01:44:37.219Z,1007.59
2016-04-25T01:44:47.219Z,1007.6
2016-04-25T01:44:57.204Z,1007.56
2016-04-25T01:45:07.191Z,1007.6
2016-04-25T01:45:17.191Z,1007.6
2016-04-25T01:45:27.175Z,1007.63
2016-04-25T01:45:37.175Z,1007.6
2016-04-25T01:45:47.175Z,1007.65
2016-04-25T01:45:57.175Z,1007.61
2016-04-25T01:46:07.163Z,1007.63
2016-04-25T01:46:17.163Z,1007.62
2016-04-25T01:46:27.163Z,1007.59
2016-04-25T01:46:37.147Z,1007.61
2016-04-25T01:46:47.147Z,1007.63
2016-04-25T01:46:57.131Z,1007.6
2016-04-25T01:47:07.119Z,1007.62
2016-04-25T01:47:17.119Z,1007.65
2016-04-25T01:47:27.119Z,1007.64
2016-04-25T01:47:37.119Z,1007.65
2016-04-25T01:47:47.103Z,1007.59
2016-04-25T01:47:57.103Z,1007.58
2016-04-25T01:48:07.090Z,1007.64
2016-04-25T01:48:17.074Z,1007.59
2016-04-25T01:48:27.090Z,1007.62
2016-04-25T01:48:37.090Z,1007.57
2016-04-25T01:48:47.074Z,1007.56
2016-04-25T01:48:57.074Z,1007.58
2016-04-25T01:49:07.061Z,1007.57
2016-04-25T01:49:17.061Z,1007.58
2016-04-25T01:49:27.030Z,1007.56
2016-04-25T01:49:37.030Z,1007.61
2016-04-25T01:49:47.046Z,1007.59
2016-04-25T01:49:57.030Z,1007.6
2016-04-25T01:50:07.033Z,1007.58
2016-04-25T01:50:17.017Z,1007.56
2016-04-25T01:50:27.017Z,1007.57
2016-04-25T01:50:37.002Z,1007.59
2016-04-25T01:50:47.002Z,1007.57
2016-04-25T01:50:56.986Z,1007.58
2016-04-25T01:51:07.004Z,1007.56
2016-04-25T01:51:16.988Z,1007.58
2016-04-25T01:51:26.988Z,1007.56
2016-04-25T01:51:36.988Z,1007.58
2016-04-25T01:51:46.973Z,1007.55
2016-04-25T01:51:56.941Z,1007.58
2016-04-25T01:52:06.960Z,1007.56
2016-04-25T01:52:16.944Z,1007.55
2016-04-25T01:52:26.960Z,1007.6
2016-04-25T01:52:36.960Z,1007.58
2016-04-25T01:52:46.929Z,1007.59
2016-04-25T01:52:56.929Z,1007.58
2016-04-25T01:53:06.916Z,1007.53
2016-04-25T01:53:16.916Z,1007.54
2016-04-25T01:53:26.916Z,1007.54
2016-04-25T01:53:36.900Z,1007.6
2016-04-25T01:53:46.916Z,1007.59
2016-04-25T01:53:56.885Z,1007.57
2016-04-25T01:54:06.888Z,1007.54
2016-04-25T01:54:16.872Z,1007.5
2016-04-25T01:54:26.872Z,1007.51
2016-04-25T01:54:36.872Z,1007.56
2016-04-25T01:54:46.903Z,1007.57
2016-04-25T01:54:56.857Z,1007.53
2016-04-25T01:55:06.859Z,1007.55
2016-04-25T01:55:16.843Z,1007.56
2016-04-25T01:55:26.859Z,1007.53
2016-04-25T01:55:36.843Z,1007.55
2016-04-25T01:55:46.827Z,1007.55
2016-04-25T01:55:56.077Z,1007.55
2016-04-25T01:56:06.846Z,1007.54
2016-04-25T01:56:16.815Z,1007.53
2016-04-25T01:56:26.815Z,1007.57
2016-04-25T01:56:36.799Z,1007.58
2016-04-25T01:56:46.799Z,1007.59
2016-04-25T01:56:56.799Z,1007.54
2016-04-25T01:57:06.645Z,1007.53
2016-04-25T01:57:16.785Z,1007.52
2016-04-25T01:57:27.254Z,1007.51
2016-04-25T01:57:37.207Z,1007.55
2016-04-25T01:57:47.410Z,1007.59
2016-04-25T01:57:57.301Z,1007.55
2016-04-25T01:58:07.554Z,1007.55
2016-04-25T01:58:16.992Z,1007.55
2016-04-25T01:58:26.617Z,1007.54
2016-04-25T01:58:36.742Z,1007.56
2016-04-25T01:58:46.726Z,1007.51
2016-04-25T01:58:56.726Z,1007.52
2016-04-25T01:59:06.713Z,1007.51
2016-04-25T01:59:16.698Z,1007.49
2016-04-25T01:59:26.698Z,1007.51
2016-04-25T01:59:36.713Z,1007.57
2016-04-25T01:59:46.698Z,1007.55
2016-04-25T01:59:56.698Z,1007.51
2016-04-25T02:00:06.684Z,1007.57
2016-04-25T02:00:15.918Z,1007.51
2016-04-25T02:00:26.668Z,1007.49
2016-04-25T02:00:36.653Z,1007.5
2016-04-25T02:00:46.668Z,1007.5
2016-04-25T02:00:56.668Z,1007.54
2016-04-25T02:01:06.641Z,1007.54
2016-04-25T02:01:16.641Z,1007.51
2016-04-25T02:01:26.641Z,1007.47